sensor_id;sensor_type;location;lat;lon;timestamp;P1;durP1;ratioP1;P2;durP2;ratioP2
24663;SDS011;12791;50.992;13.788;2022-08-14T00:00:08;8.25;;;7.60;;
24663;SDS011;12791;50.992;13.788;2022-08-14T00:02:38;9.98;;;9.07;;
24663;SDS011;12791;50.992;13.788;2022-08-14T00:05:07;8.73;;;8.02;;
24663;SDS011;12791;50.992;13.788;2022-08-14T00:07:35;8.77;;;8.00;;
24663;SDS011;12791;50.992;13.788;2022-08-14T00:10:02;8.43;;;7.82;;
24663;SDS011;12791;50.992;13.788;2022-08-14T00:12:30;8.93;;;8.23;;
24663;SDS011;12791;50.992;13.788;2022-08-14T00:14:57;7.95;;;7.35;;
24663;SDS011;12791;50.992;13.788;2022-08-14T00:17:24;7.65;;;7.15;;
24663;SDS011;12791;50.992;13.788;2022-08-14T00:19:52;8.00;;;7.40;;
24663;SDS011;12791;50.992;13.788;2022-08-14T00:22:19;8.55;;;7.85;;
24663;SDS011;12791;50.992;13.788;2022-08-14T00:24:46;8.93;;;8.23;;
24663;SDS011;12791;50.992;13.788;2022-08-14T00:27:13;8.30;;;7.68;;
24663;SDS011;12791;50.992;13.788;2022-08-14T00:29:40;9.95;;;9.05;;
24663;SDS011;12791;50.992;13.788;2022-08-14T00:32:06;9.02;;;8.20;;
24663;SDS011;12791;50.992;13.788;2022-08-14T00:34:33;9.07;;;8.38;;
24663;SDS011;12791;50.992;13.788;2022-08-14T00:37:01;10.00;;;9.10;;
24663;SDS011;12791;50.992;13.788;2022-08-14T00:39:29;9.30;;;8.60;;
24663;SDS011;12791;50.992;13.788;2022-08-14T00:41:56;8.85;;;8.13;;
24663;SDS011;12791;50.992;13.788;2022-08-14T00:44:23;9.00;;;8.30;;
24663;SDS011;12791;50.992;13.788;2022-08-14T00:46:49;9.25;;;8.50;;
24663;SDS011;12791;50.992;13.788;2022-08-14T00:49:16;9.48;;;8.57;;
24663;SDS011;12791;50.992;13.788;2022-08-14T00:51:42;8.68;;;7.97;;
24663;SDS011;12791;50.992;13.788;2022-08-14T00:54:11;8.80;;;8.00;;
24663;SDS011;12791;50.992;13.788;2022-08-14T00:56:38;9.00;;;8.27;;
24663;SDS011;12791;50.992;13.788;2022-08-14T00:59:05;9.82;;;8.85;;
24663;SDS011;12791;50.992;13.788;2022-08-14T01:01:33;9.23;;;8.38;;
24663;SDS011;12791;50.992;13.788;2022-08-14T01:04:01;8.98;;;8.27;;
24663;SDS011;12791;50.992;13.788;2022-08-14T01:06:29;9.68;;;8.88;;
24663;SDS011;12791;50.992;13.788;2022-08-14T01:08:57;9.40;;;8.70;;
24663;SDS011;12791;50.992;13.788;2022-08-14T01:11:26;8.75;;;8.00;;
24663;SDS011;12791;50.992;13.788;2022-08-14T01:13:53;9.13;;;8.43;;
24663;SDS011;12791;50.992;13.788;2022-08-14T01:16:24;9.15;;;8.43;;
24663;SDS011;12791;50.992;13.788;2022-08-14T01:18:52;9.43;;;8.68;;
24663;SDS011;12791;50.992;13.788;2022-08-14T01:21:43;9.23;;;8.35;;
24663;SDS011;12791;50.992;13.788;2022-08-14T01:24:11;9.40;;;8.60;;
24663;SDS011;12791;50.992;13.788;2022-08-14T01:26:39;9.65;;;8.80;;
24663;SDS011;12791;50.992;13.788;2022-08-14T01:29:07;8.73;;;8.13;;
24663;SDS011;12791;50.992;13.788;2022-08-14T01:31:35;9.60;;;8.90;;
24663;SDS011;12791;50.992;13.788;2022-08-14T01:34:04;9.10;;;8.30;;
24663;SDS011;12791;50.992;13.788;2022-08-14T01:36:31;9.07;;;8.25;;
24663;SDS011;12791;50.992;13.788;2022-08-14T01:39:03;9.65;;;8.80;;
24663;SDS011;12791;50.992;13.788;2022-08-14T01:41:32;8.98;;;8.32;;
24663;SDS011;12791;50.992;13.788;2022-08-14T01:44:01;8.60;;;7.90;;
24663;SDS011;12791;50.992;13.788;2022-08-14T01:46:31;9.30;;;8.60;;
24663;SDS011;12791;50.992;13.788;2022-08-14T01:49:00;9.52;;;8.73;;
24663;SDS011;12791;50.992;13.788;2022-08-14T01:51:29;9.80;;;9.00;;
24663;SDS011;12791;50.992;13.788;2022-08-14T01:53:57;9.50;;;8.60;;
24663;SDS011;12791;50.992;13.788;2022-08-14T01:56:28;8.95;;;8.25;;
24663;SDS011;12791;50.992;13.788;2022-08-14T01:59:02;9.73;;;8.90;;
24663;SDS011;12791;50.992;13.788;2022-08-14T02:01:29;10.05;;;9.25;;
24663;SDS011;12791;50.992;13.788;2022-08-14T02:03:56;9.20;;;8.50;;
24663;SDS011;12791;50.992;13.788;2022-08-14T02:06:23;9.90;;;9.10;;
24663;SDS011;12791;50.992;13.788;2022-08-14T02:08:51;8.93;;;8.23;;
24663;SDS011;12791;50.992;13.788;2022-08-14T02:11:18;8.95;;;8.25;;
24663;SDS011;12791;50.992;13.788;2022-08-14T02:13:50;10.07;;;9.27;;
24663;SDS011;12791;50.992;13.788;2022-08-14T02:16:21;9.53;;;8.73;;
24663;SDS011;12791;50.992;13.788;2022-08-14T02:18:50;9.55;;;8.82;;
24663;SDS011;12791;50.992;13.788;2022-08-14T02:21:18;9.48;;;8.77;;
24663;SDS011;12791;50.992;13.788;2022-08-14T02:23:45;8.90;;;8.20;;
24663;SDS011;12791;50.992;13.788;2022-08-14T02:26:14;9.25;;;8.48;;
24663;SDS011;12791;50.992;13.788;2022-08-14T02:28:45;9.32;;;8.30;;
24663;SDS011;12791;50.992;13.788;2022-08-14T02:31:14;9.13;;;8.43;;
24663;SDS011;12791;50.992;13.788;2022-08-14T02:33:41;9.23;;;8.38;;
24663;SDS011;12791;50.992;13.788;2022-08-14T02:36:09;9.02;;;8.23;;
24663;SDS011;12791;50.992;13.788;2022-08-14T02:38:37;7.82;;;7.22;;
24663;SDS011;12791;50.992;13.788;2022-08-14T02:41:06;10.35;;;9.45;;
24663;SDS011;12791;50.992;13.788;2022-08-14T02:43:34;9.20;;;8.50;;
24663;SDS011;12791;50.992;13.788;2022-08-14T02:46:02;9.52;;;8.73;;
24663;SDS011;12791;50.992;13.788;2022-08-14T02:48:34;9.90;;;9.05;;
24663;SDS011;12791;50.992;13.788;2022-08-14T02:51:01;9.85;;;9.05;;
24663;SDS011;12791;50.992;13.788;2022-08-14T02:53:31;10.27;;;9.27;;
24663;SDS011;12791;50.992;13.788;2022-08-14T02:55:58;8.85;;;8.20;;
24663;SDS011;12791;50.992;13.788;2022-08-14T02:58:25;9.38;;;8.55;;
24663;SDS011;12791;50.992;13.788;2022-08-14T03:00:52;9.82;;;9.02;;
24663;SDS011;12791;50.992;13.788;2022-08-14T03:03:19;9.52;;;8.82;;
24663;SDS011;12791;50.992;13.788;2022-08-14T03:05:49;10.20;;;9.40;;
24663;SDS011;12791;50.992;13.788;2022-08-14T03:08:16;9.27;;;8.52;;
24663;SDS011;12791;50.992;13.788;2022-08-14T03:10:43;9.65;;;8.85;;
24663;SDS011;12791;50.992;13.788;2022-08-14T03:13:11;9.15;;;8.45;;
24663;SDS011;12791;50.992;13.788;2022-08-14T03:15:37;10.48;;;9.63;;
24663;SDS011;12791;50.992;13.788;2022-08-14T03:18:08;10.00;;;9.20;;
24663;SDS011;12791;50.992;13.788;2022-08-14T03:20:35;9.80;;;9.00;;
24663;SDS011;12791;50.992;13.788;2022-08-14T03:23:04;10.45;;;9.55;;
24663;SDS011;12791;50.992;13.788;2022-08-14T03:25:31;9.70;;;8.90;;
24663;SDS011;12791;50.992;13.788;2022-08-14T03:27:58;9.27;;;8.50;;
24663;SDS011;12791;50.992;13.788;2022-08-14T03:30:28;9.77;;;8.98;;
24663;SDS011;12791;50.992;13.788;2022-08-14T03:32:56;9.32;;;8.65;;
24663;SDS011;12791;50.992;13.788;2022-08-14T03:35:23;9.35;;;8.57;;
24663;SDS011;12791;50.992;13.788;2022-08-14T03:37:50;9.77;;;8.98;;
24663;SDS011;12791;50.992;13.788;2022-08-14T03:40:19;10.40;;;9.60;;
24663;SDS011;12791;50.992;13.788;2022-08-14T03:42:46;10.18;;;9.20;;
24663;SDS011;12791;50.992;13.788;2022-08-14T03:45:14;9.32;;;8.57;;
24663;SDS011;12791;50.992;13.788;2022-08-14T03:47:41;9.60;;;8.80;;
24663;SDS011;12791;50.992;13.788;2022-08-14T03:50:08;10.02;;;9.23;;
24663;SDS011;12791;50.992;13.788;2022-08-14T03:52:36;9.65;;;8.85;;
24663;SDS011;12791;50.992;13.788;2022-08-14T03:55:04;10.75;;;9.85;;
24663;SDS011;12791;50.992;13.788;2022-08-14T03:57:33;10.13;;;9.32;;
24663;SDS011;12791;50.992;13.788;2022-08-14T04:00:00;9.38;;;8.65;;
24663;SDS011;12791;50.992;13.788;2022-08-14T04:02:31;9.73;;;8.90;;
24663;SDS011;12791;50.992;13.788;2022-08-14T04:04:58;10.15;;;9.25;;
24663;SDS011;12791;50.992;13.788;2022-08-14T04:07:25;10.15;;;9.25;;
24663;SDS011;12791;50.992;13.788;2022-08-14T04:09:52;11.40;;;10.30;;
24663;SDS011;12791;50.992;13.788;2022-08-14T04:12:18;10.50;;;9.70;;
24663;SDS011;12791;50.992;13.788;2022-08-14T04:14:46;11.55;;;10.35;;
24663;SDS011;12791;50.992;13.788;2022-08-14T04:17:15;10.20;;;9.27;;
24663;SDS011;12791;50.992;13.788;2022-08-14T04:19:42;10.00;;;9.23;;
24663;SDS011;12791;50.992;13.788;2022-08-14T04:22:09;10.73;;;9.73;;
24663;SDS011;12791;50.992;13.788;2022-08-14T04:24:37;10.88;;;9.52;;
24663;SDS011;12791;50.992;13.788;2022-08-14T04:27:04;10.68;;;9.68;;
24663;SDS011;12791;50.992;13.788;2022-08-14T04:29:34;10.73;;;9.73;;
24663;SDS011;12791;50.992;13.788;2022-08-14T04:32:03;9.68;;;8.88;;
24663;SDS011;12791;50.992;13.788;2022-08-14T04:34:32;10.50;;;9.60;;
24663;SDS011;12791;50.992;13.788;2022-08-14T04:36:59;10.55;;;9.65;;
24663;SDS011;12791;50.992;13.788;2022-08-14T04:39:43;10.32;;;9.35;;
24663;SDS011;12791;50.992;13.788;2022-08-14T04:42:27;10.10;;;9.30;;
24663;SDS011;12791;50.992;13.788;2022-08-14T04:45:12;10.07;;;9.10;;
24663;SDS011;12791;50.992;13.788;2022-08-14T04:47:41;11.25;;;10.35;;
24663;SDS011;12791;50.992;13.788;2022-08-14T04:50:26;12.63;;;11.43;;
24663;SDS011;12791;50.992;13.788;2022-08-14T04:52:53;12.73;;;11.63;;
24663;SDS011;12791;50.992;13.788;2022-08-14T04:55:20;13.43;;;12.13;;
24663;SDS011;12791;50.992;13.788;2022-08-14T04:57:47;12.48;;;11.40;;
24663;SDS011;12791;50.992;13.788;2022-08-14T05:00:14;13.52;;;12.32;;
24663;SDS011;12791;50.992;13.788;2022-08-14T05:02:42;12.60;;;11.48;;
24663;SDS011;12791;50.992;13.788;2022-08-14T05:05:09;13.80;;;12.60;;
24663;SDS011;12791;50.992;13.788;2022-08-14T05:07:36;13.75;;;12.45;;
24663;SDS011;12791;50.992;13.788;2022-08-14T05:10:04;13.95;;;12.75;;
24663;SDS011;12791;50.992;13.788;2022-08-14T05:12:31;13.65;;;12.43;;
24663;SDS011;12791;50.992;13.788;2022-08-14T05:14:57;13.90;;;12.70;;
24663;SDS011;12791;50.992;13.788;2022-08-14T05:17:24;17.08;;;15.48;;
24663;SDS011;12791;50.992;13.788;2022-08-14T05:19:52;16.27;;;14.88;;
24663;SDS011;12791;50.992;13.788;2022-08-14T05:22:19;19.00;;;17.15;;
24663;SDS011;12791;50.992;13.788;2022-08-14T05:24:47;18.65;;;17.00;;
24663;SDS011;12791;50.992;13.788;2022-08-14T05:27:14;17.52;;;15.93;;
24663;SDS011;12791;50.992;13.788;2022-08-14T05:29:44;18.88;;;16.98;;
24663;SDS011;12791;50.992;13.788;2022-08-14T05:32:11;17.67;;;16.13;;
24663;SDS011;12791;50.992;13.788;2022-08-14T05:34:39;15.43;;;14.05;;
24663;SDS011;12791;50.992;13.788;2022-08-14T05:37:08;14.50;;;13.18;;
24663;SDS011;12791;50.992;13.788;2022-08-14T05:39:35;14.18;;;12.77;;
24663;SDS011;12791;50.992;13.788;2022-08-14T05:42:04;16.00;;;14.50;;
24663;SDS011;12791;50.992;13.788;2022-08-14T05:44:31;14.80;;;13.45;;
24663;SDS011;12791;50.992;13.788;2022-08-14T05:46:58;15.10;;;13.70;;
24663;SDS011;12791;50.992;13.788;2022-08-14T05:49:26;17.17;;;15.48;;
24663;SDS011;12791;50.992;13.788;2022-08-14T05:51:53;16.08;;;14.57;;
24663;SDS011;12791;50.992;13.788;2022-08-14T05:54:21;14.80;;;13.50;;
24663;SDS011;12791;50.992;13.788;2022-08-14T05:56:49;14.10;;;12.80;;
24663;SDS011;12791;50.992;13.788;2022-08-14T05:59:15;14.88;;;13.52;;
24663;SDS011;12791;50.992;13.788;2022-08-14T06:01:42;16.70;;;15.18;;
24663;SDS011;12791;50.992;13.788;2022-08-14T06:04:09;14.82;;;13.50;;
24663;SDS011;12791;50.992;13.788;2022-08-14T06:06:35;14.82;;;13.52;;
24663;SDS011;12791;50.992;13.788;2022-08-14T06:09:02;14.10;;;12.93;;
24663;SDS011;12791;50.992;13.788;2022-08-14T06:11:30;15.40;;;14.10;;
24663;SDS011;12791;50.992;13.788;2022-08-14T06:13:57;18.35;;;16.48;;
24663;SDS011;12791;50.992;13.788;2022-08-14T06:16:24;16.23;;;14.68;;
24663;SDS011;12791;50.992;13.788;2022-08-14T06:18:50;18.27;;;16.67;;
24663;SDS011;12791;50.992;13.788;2022-08-14T06:21:17;16.92;;;15.40;;
24663;SDS011;12791;50.992;13.788;2022-08-14T06:23:44;14.13;;;12.82;;
24663;SDS011;12791;50.992;13.788;2022-08-14T06:26:10;14.98;;;13.68;;
24663;SDS011;12791;50.992;13.788;2022-08-14T06:28:38;14.60;;;13.30;;
24663;SDS011;12791;50.992;13.788;2022-08-14T06:31:05;13.20;;;12.10;;
24663;SDS011;12791;50.992;13.788;2022-08-14T06:33:31;14.38;;;13.07;;
24663;SDS011;12791;50.992;13.788;2022-08-14T06:35:58;13.50;;;12.30;;
24663;SDS011;12791;50.992;13.788;2022-08-14T06:38:25;13.30;;;12.10;;
24663;SDS011;12791;50.992;13.788;2022-08-14T06:40:51;14.32;;;13.13;;
24663;SDS011;12791;50.992;13.788;2022-08-14T06:43:18;14.75;;;13.45;;
24663;SDS011;12791;50.992;13.788;2022-08-14T06:45:48;14.18;;;12.95;;
24663;SDS011;12791;50.992;13.788;2022-08-14T06:48:16;17.13;;;15.73;;
24663;SDS011;12791;50.992;13.788;2022-08-14T06:50:44;15.38;;;14.02;;
24663;SDS011;12791;50.992;13.788;2022-08-14T06:53:12;14.20;;;13.00;;
24663;SDS011;12791;50.992;13.788;2022-08-14T06:55:40;15.77;;;14.45;;
24663;SDS011;12791;50.992;13.788;2022-08-14T06:58:09;16.35;;;14.95;;
24663;SDS011;12791;50.992;13.788;2022-08-14T07:00:37;17.48;;;15.73;;
24663;SDS011;12791;50.992;13.788;2022-08-14T07:03:05;15.50;;;14.18;;
24663;SDS011;12791;50.992;13.788;2022-08-14T07:05:49;13.00;;;11.80;;
24663;SDS011;12791;50.992;13.788;2022-08-14T07:08:17;14.57;;;13.38;;
24663;SDS011;12791;50.992;13.788;2022-08-14T07:10:46;13.13;;;11.93;;
24663;SDS011;12791;50.992;13.788;2022-08-14T07:13:14;12.32;;;11.18;;
24663;SDS011;12791;50.992;13.788;2022-08-14T07:15:43;15.40;;;14.10;;
24663;SDS011;12791;50.992;13.788;2022-08-14T07:18:12;16.92;;;15.35;;
24663;SDS011;12791;50.992;13.788;2022-08-14T07:20:39;15.43;;;14.05;;
24663;SDS011;12791;50.992;13.788;2022-08-14T07:23:08;14.80;;;13.32;;
24663;SDS011;12791;50.992;13.788;2022-08-14T07:25:35;14.50;;;13.25;;
24663;SDS011;12791;50.992;13.788;2022-08-14T07:28:07;14.07;;;12.77;;
24663;SDS011;12791;50.992;13.788;2022-08-14T07:30:35;12.73;;;11.63;;
24663;SDS011;12791;50.992;13.788;2022-08-14T07:33:03;13.00;;;12.00;;
24663;SDS011;12791;50.992;13.788;2022-08-14T07:35:32;14.38;;;13.18;;
24663;SDS011;12791;50.992;13.788;2022-08-14T07:37:59;14.38;;;13.07;;
24663;SDS011;12791;50.992;13.788;2022-08-14T07:40:26;15.00;;;13.70;;
24663;SDS011;12791;50.992;13.788;2022-08-14T07:42:52;14.88;;;13.52;;
24663;SDS011;12791;50.992;13.788;2022-08-14T07:45:20;14.70;;;13.23;;
24663;SDS011;12791;50.992;13.788;2022-08-14T07:47:46;14.30;;;13.10;;
24663;SDS011;12791;50.992;13.788;2022-08-14T07:50:14;16.13;;;14.68;;
24663;SDS011;12791;50.992;13.788;2022-08-14T07:52:43;15.30;;;13.88;;
24663;SDS011;12791;50.992;13.788;2022-08-14T07:55:12;12.73;;;11.73;;
24663;SDS011;12791;50.992;13.788;2022-08-14T07:57:40;13.80;;;12.70;;
24663;SDS011;12791;50.992;13.788;2022-08-14T08:00:09;15.60;;;14.20;;
24663;SDS011;12791;50.992;13.788;2022-08-14T08:02:38;14.65;;;13.07;;
24663;SDS011;12791;50.992;13.788;2022-08-14T08:05:06;14.30;;;13.07;;
24663;SDS011;12791;50.992;13.788;2022-08-14T08:07:34;14.77;;;13.50;;
24663;SDS011;12791;50.992;13.788;2022-08-14T08:10:05;12.80;;;11.82;;
24663;SDS011;12791;50.992;13.788;2022-08-14T08:12:48;13.25;;;12.05;;
24663;SDS011;12791;50.992;13.788;2022-08-14T08:15:17;14.70;;;13.38;;
24663;SDS011;12791;50.992;13.788;2022-08-14T08:17:44;12.98;;;11.90;;
24663;SDS011;12791;50.992;13.788;2022-08-14T08:20:14;12.63;;;11.63;;
24663;SDS011;12791;50.992;13.788;2022-08-14T08:22:42;13.40;;;12.30;;
24663;SDS011;12791;50.992;13.788;2022-08-14T08:25:10;13.25;;;11.98;;
24663;SDS011;12791;50.992;13.788;2022-08-14T08:27:37;11.63;;;10.63;;
24663;SDS011;12791;50.992;13.788;2022-08-14T08:30:04;12.02;;;11.07;;
24663;SDS011;12791;50.992;13.788;2022-08-14T08:32:36;14.02;;;12.82;;
24663;SDS011;12791;50.992;13.788;2022-08-14T08:35:04;13.07;;;12.07;;
24663;SDS011;12791;50.992;13.788;2022-08-14T08:37:34;11.88;;;10.93;;
24663;SDS011;12791;50.992;13.788;2022-08-14T08:40:01;12.90;;;11.80;;
24663;SDS011;12791;50.992;13.788;2022-08-14T08:42:30;11.93;;;10.93;;
24663;SDS011;12791;50.992;13.788;2022-08-14T08:44:56;11.93;;;10.98;;
24663;SDS011;12791;50.992;13.788;2022-08-14T08:47:23;11.13;;;10.25;;
24663;SDS011;12791;50.992;13.788;2022-08-14T08:49:50;12.93;;;11.82;;
24663;SDS011;12791;50.992;13.788;2022-08-14T08:52:18;12.07;;;11.18;;
24663;SDS011;12791;50.992;13.788;2022-08-14T08:54:51;12.95;;;11.82;;
24663;SDS011;12791;50.992;13.788;2022-08-14T08:57:19;13.55;;;12.35;;
24663;SDS011;12791;50.992;13.788;2022-08-14T08:59:47;12.07;;;11.18;;
24663;SDS011;12791;50.992;13.788;2022-08-14T09:02:14;12.20;;;11.30;;
24663;SDS011;12791;50.992;13.788;2022-08-14T09:04:42;13.55;;;12.35;;
24663;SDS011;12791;50.992;13.788;2022-08-14T09:07:09;11.55;;;10.65;;
24663;SDS011;12791;50.992;13.788;2022-08-14T09:09:37;11.38;;;10.50;;
24663;SDS011;12791;50.992;13.788;2022-08-14T09:12:15;10.93;;;10.13;;
24663;SDS011;12791;50.992;13.788;2022-08-14T09:14:43;11.20;;;10.32;;
24663;SDS011;12791;50.992;13.788;2022-08-14T09:17:12;10.45;;;9.30;;
24663;SDS011;12791;50.992;13.788;2022-08-14T09:19:39;10.35;;;9.45;;
24663;SDS011;12791;50.992;13.788;2022-08-14T09:22:07;12.35;;;11.40;;
24663;SDS011;12791;50.992;13.788;2022-08-14T09:24:35;10.15;;;9.45;;
24663;SDS011;12791;50.992;13.788;2022-08-14T09:27:01;9.75;;;9.05;;
24663;SDS011;12791;50.992;13.788;2022-08-14T09:29:29;10.63;;;9.73;;
24663;SDS011;12791;50.992;13.788;2022-08-14T09:31:57;10.48;;;9.57;;
24663;SDS011;12791;50.992;13.788;2022-08-14T09:34:33;9.68;;;8.98;;
24663;SDS011;12791;50.992;13.788;2022-08-14T09:37:15;9.60;;;8.90;;
24663;SDS011;12791;50.992;13.788;2022-08-14T09:39:58;9.75;;;8.93;;
24663;SDS011;12791;50.992;13.788;2022-08-14T09:42:34;9.13;;;8.52;;
24663;SDS011;12791;50.992;13.788;2022-08-14T09:45:13;8.95;;;8.15;;
24663;SDS011;12791;50.992;13.788;2022-08-14T09:47:42;8.48;;;7.97;;
24663;SDS011;12791;50.992;13.788;2022-08-14T09:50:23;9.63;;;8.77;;
24663;SDS011;12791;50.992;13.788;2022-08-14T09:52:53;8.77;;;8.07;;
24663;SDS011;12791;50.992;13.788;2022-08-14T09:55:22;9.68;;;8.88;;
24663;SDS011;12791;50.992;13.788;2022-08-14T09:57:50;9.13;;;8.43;;
24663;SDS011;12791;50.992;13.788;2022-08-14T10:00:18;8.52;;;7.93;;
24663;SDS011;12791;50.992;13.788;2022-08-14T10:02:50;7.75;;;7.15;;
24663;SDS011;12791;50.992;13.788;2022-08-14T10:05:27;7.70;;;7.20;;
24663;SDS011;12791;50.992;13.788;2022-08-14T10:07:56;8.18;;;7.57;;
24663;SDS011;12791;50.992;13.788;2022-08-14T10:10:26;7.10;;;6.60;;
24663;SDS011;12791;50.992;13.788;2022-08-14T10:12:55;7.82;;;7.32;;
24663;SDS011;12791;50.992;13.788;2022-08-14T10:15:22;7.60;;;7.10;;
24663;SDS011;12791;50.992;13.788;2022-08-14T10:18:01;8.20;;;7.50;;
24663;SDS011;12791;50.992;13.788;2022-08-14T10:20:33;7.95;;;7.43;;
24663;SDS011;12791;50.992;13.788;2022-08-14T10:23:09;7.47;;;6.97;;
24663;SDS011;12791;50.992;13.788;2022-08-14T10:25:40;7.95;;;7.25;;
24663;SDS011;12791;50.992;13.788;2022-08-14T10:28:08;7.85;;;7.22;;
24663;SDS011;12791;50.992;13.788;2022-08-14T10:30:39;6.60;;;6.20;;
24663;SDS011;12791;50.992;13.788;2022-08-14T10:33:07;7.38;;;6.80;;
24663;SDS011;12791;50.992;13.788;2022-08-14T10:35:42;6.32;;;5.82;;
24663;SDS011;12791;50.992;13.788;2022-08-14T10:38:09;7.90;;;6.95;;
24663;SDS011;12791;50.992;13.788;2022-08-14T10:40:36;6.97;;;6.47;;
24663;SDS011;12791;50.992;13.788;2022-08-14T10:43:15;7.00;;;6.50;;
24663;SDS011;12791;50.992;13.788;2022-08-14T10:45:51;7.57;;;6.90;;
24663;SDS011;12791;50.992;13.788;2022-08-14T10:48:19;7.35;;;6.75;;
24663;SDS011;12791;50.992;13.788;2022-08-14T10:50:47;6.55;;;6.15;;
24663;SDS011;12791;50.992;13.788;2022-08-14T10:53:30;7.20;;;6.50;;
24663;SDS011;12791;50.992;13.788;2022-08-14T10:56:00;6.45;;;6.05;;
24663;SDS011;12791;50.992;13.788;2022-08-14T10:58:31;6.93;;;6.53;;
24663;SDS011;12791;50.992;13.788;2022-08-14T11:00:59;6.72;;;6.30;;
24663;SDS011;12791;50.992;13.788;2022-08-14T11:03:35;7.72;;;7.00;;
24663;SDS011;12791;50.992;13.788;2022-08-14T11:06:11;7.70;;;7.10;;
24663;SDS011;12791;50.992;13.788;2022-08-14T11:08:43;6.57;;;6.18;;
24663;SDS011;12791;50.992;13.788;2022-08-14T11:11:10;6.95;;;6.43;;
24663;SDS011;12791;50.992;13.788;2022-08-14T11:13:39;7.50;;;7.00;;
24663;SDS011;12791;50.992;13.788;2022-08-14T11:16:08;7.13;;;6.70;;
24663;SDS011;12791;50.992;13.788;2022-08-14T11:18:36;7.10;;;6.40;;
24663;SDS011;12791;50.992;13.788;2022-08-14T11:21:04;7.20;;;6.60;;
24663;SDS011;12791;50.992;13.788;2022-08-14T11:23:33;6.50;;;6.05;;
24663;SDS011;12791;50.992;13.788;2022-08-14T11:26:02;7.13;;;6.50;;
24663;SDS011;12791;50.992;13.788;2022-08-14T11:28:32;7.32;;;6.72;;
24663;SDS011;12791;50.992;13.788;2022-08-14T11:30:59;6.60;;;6.20;;
24663;SDS011;12791;50.992;13.788;2022-08-14T11:33:28;6.78;;;6.07;;
24663;SDS011;12791;50.992;13.788;2022-08-14T11:35:58;6.00;;;5.50;;
24663;SDS011;12791;50.992;13.788;2022-08-14T11:38:27;5.95;;;5.55;;
24663;SDS011;12791;50.992;13.788;2022-08-14T11:41:01;6.70;;;5.93;;
24663;SDS011;12791;50.992;13.788;2022-08-14T11:43:29;5.88;;;5.40;;
24663;SDS011;12791;50.992;13.788;2022-08-14T11:45:56;6.55;;;6.03;;
24663;SDS011;12791;50.992;13.788;2022-08-14T11:48:25;6.13;;;5.70;;
24663;SDS011;12791;50.992;13.788;2022-08-14T11:50:52;5.70;;;5.40;;
24663;SDS011;12791;50.992;13.788;2022-08-14T11:53:20;6.63;;;5.97;;
24663;SDS011;12791;50.992;13.788;2022-08-14T11:55:53;6.75;;;6.15;;
24663;SDS011;12791;50.992;13.788;2022-08-14T11:58:25;7.28;;;6.28;;
24663;SDS011;12791;50.992;13.788;2022-08-14T12:00:53;6.32;;;5.93;;
24663;SDS011;12791;50.992;13.788;2022-08-14T12:03:22;6.28;;;5.78;;
24663;SDS011;12791;50.992;13.788;2022-08-14T12:06:02;6.72;;;6.13;;
24663;SDS011;12791;50.992;13.788;2022-08-14T12:08:32;6.25;;;5.85;;
24663;SDS011;12791;50.992;13.788;2022-08-14T12:10:59;5.72;;;5.43;;
24663;SDS011;12791;50.992;13.788;2022-08-14T12:13:28;6.07;;;5.47;;
24663;SDS011;12791;50.992;13.788;2022-08-14T12:15:58;5.55;;;5.25;;
24663;SDS011;12791;50.992;13.788;2022-08-14T12:18:30;6.40;;;5.75;;
24663;SDS011;12791;50.992;13.788;2022-08-14T12:20:58;6.63;;;6.13;;
24663;SDS011;12791;50.992;13.788;2022-08-14T12:23:36;6.03;;;5.47;;
24663;SDS011;12791;50.992;13.788;2022-08-14T12:26:02;6.35;;;5.80;;
24663;SDS011;12791;50.992;13.788;2022-08-14T12:28:32;6.93;;;6.38;;
24663;SDS011;12791;50.992;13.788;2022-08-14T12:30:59;6.57;;;6.15;;
24663;SDS011;12791;50.992;13.788;2022-08-14T12:33:26;7.03;;;6.43;;
24663;SDS011;12791;50.992;13.788;2022-08-14T12:35:57;6.82;;;6.43;;
24663;SDS011;12791;50.992;13.788;2022-08-14T12:38:32;7.25;;;6.75;;
24663;SDS011;12791;50.992;13.788;2022-08-14T12:41:00;6.63;;;6.22;;
24663;SDS011;12791;50.992;13.788;2022-08-14T12:43:27;7.22;;;6.82;;
24663;SDS011;12791;50.992;13.788;2022-08-14T12:45:56;7.10;;;6.60;;
24663;SDS011;12791;50.992;13.788;2022-08-14T12:48:23;6.72;;;6.20;;
24663;SDS011;12791;50.992;13.788;2022-08-14T12:50:53;7.13;;;6.68;;
24663;SDS011;12791;50.992;13.788;2022-08-14T12:53:20;6.80;;;6.30;;
24663;SDS011;12791;50.992;13.788;2022-08-14T12:55:56;6.90;;;6.40;;
24663;SDS011;12791;50.992;13.788;2022-08-14T12:58:26;6.90;;;6.47;;
24663;SDS011;12791;50.992;13.788;2022-08-14T13:00:55;6.53;;;6.03;;
24663;SDS011;12791;50.992;13.788;2022-08-14T13:03:23;6.72;;;6.30;;
24663;SDS011;12791;50.992;13.788;2022-08-14T13:05:50;7.22;;;6.63;;
24663;SDS011;12791;50.992;13.788;2022-08-14T13:08:17;6.47;;;6.18;;
24663;SDS011;12791;50.992;13.788;2022-08-14T13:10:44;6.72;;;6.22;;
24663;SDS011;12791;50.992;13.788;2022-08-14T13:13:14;6.78;;;6.30;;
24663;SDS011;12791;50.992;13.788;2022-08-14T13:15:41;6.97;;;6.47;;
24663;SDS011;12791;50.992;13.788;2022-08-14T13:18:12;7.30;;;6.70;;
24663;SDS011;12791;50.992;13.788;2022-08-14T13:20:40;7.05;;;6.47;;
24663;SDS011;12791;50.992;13.788;2022-08-14T13:23:07;7.40;;;6.82;;
24663;SDS011;12791;50.992;13.788;2022-08-14T13:25:35;7.18;;;6.55;;
24663;SDS011;12791;50.992;13.788;2022-08-14T13:28:04;7.38;;;6.72;;
24663;SDS011;12791;50.992;13.788;2022-08-14T13:30:32;7.60;;;7.10;;
24663;SDS011;12791;50.992;13.788;2022-08-14T13:33:00;7.05;;;6.53;;
24663;SDS011;12791;50.992;13.788;2022-08-14T13:35:31;6.65;;;6.25;;
24663;SDS011;12791;50.992;13.788;2022-08-14T13:37:57;6.78;;;6.38;;
24663;SDS011;12791;50.992;13.788;2022-08-14T13:40:25;6.90;;;6.43;;
24663;SDS011;12791;50.992;13.788;2022-08-14T13:42:54;7.30;;;6.90;;
24663;SDS011;12791;50.992;13.788;2022-08-14T13:45:21;7.00;;;6.50;;
24663;SDS011;12791;50.992;13.788;2022-08-14T13:47:48;8.40;;;7.70;;
24663;SDS011;12791;50.992;13.788;2022-08-14T13:50:17;7.22;;;6.72;;
24663;SDS011;12791;50.992;13.788;2022-08-14T13:52:46;7.30;;;6.90;;
24663;SDS011;12791;50.992;13.788;2022-08-14T13:55:18;7.10;;;6.68;;
24663;SDS011;12791;50.992;13.788;2022-08-14T13:57:46;7.88;;;7.07;;
24663;SDS011;12791;50.992;13.788;2022-08-14T14:00:14;6.55;;;6.05;;
24663;SDS011;12791;50.992;13.788;2022-08-14T14:02:43;7.60;;;6.90;;
24663;SDS011;12791;50.992;13.788;2022-08-14T14:05:12;7.03;;;6.45;;
24663;SDS011;12791;50.992;13.788;2022-08-14T14:07:44;6.90;;;6.37;;
24663;SDS011;12791;50.992;13.788;2022-08-14T14:10:14;7.32;;;6.82;;
24663;SDS011;12791;50.992;13.788;2022-08-14T14:12:43;7.50;;;7.00;;
24663;SDS011;12791;50.992;13.788;2022-08-14T14:15:10;7.72;;;7.03;;
24663;SDS011;12791;50.992;13.788;2022-08-14T14:17:40;9.02;;;6.82;;
24663;SDS011;12791;50.992;13.788;2022-08-14T14:20:09;7.20;;;6.60;;
24663;SDS011;12791;50.992;13.788;2022-08-14T14:22:38;7.68;;;7.00;;
24663;SDS011;12791;50.992;13.788;2022-08-14T14:25:07;7.22;;;6.60;;
24663;SDS011;12791;50.992;13.788;2022-08-14T14:27:35;7.53;;;6.93;;
24663;SDS011;12791;50.992;13.788;2022-08-14T14:30:03;7.70;;;7.18;;
24663;SDS011;12791;50.992;13.788;2022-08-14T14:32:31;8.27;;;7.47;;
24663;SDS011;12791;50.992;13.788;2022-08-14T14:34:58;8.02;;;7.18;;